createdAt,value
2023-03-26T00:00:48.418Z,8.38
2023-03-26T00:03:17.024Z,8.36
2023-03-26T00:05:46.533Z,8.41
2023-03-26T00:08:12.968Z,8.41
2023-03-26T00:10:41.421Z,8.44
2023-03-26T00:13:08.814Z,8.43
2023-03-26T00:15:36.565Z,8.45
2023-03-26T00:18:03.493Z,8.44
2023-03-26T00:20:32.739Z,8.42
2023-03-26T00:23:01.797Z,8.43
2023-03-26T00:25:28.428Z,8.41
2023-03-26T00:27:54.822Z,8.42
2023-03-26T00:30:21.260Z,8.42
2023-03-26T00:32:53.681Z,8.41
2023-03-26T00:35:20.890Z,8.38
2023-03-26T00:37:47.770Z,8.38
2023-03-26T00:40:16.927Z,8.42
2023-03-26T00:42:43.345Z,8.43
2023-03-26T00:45:10.216Z,8.42
2023-03-26T00:47:37.157Z,8.38
2023-03-26T00:50:04.289Z,8.38
2023-03-26T00:52:31.648Z,8.37
2023-03-26T00:54:58.103Z,8.36
2023-03-26T00:57:35.743Z,8.35
2023-03-26T01:00:16.487Z,8.36
2023-03-26T01:02:45.156Z,8.37
2023-03-26T01:05:36.343Z,8.34
2023-03-26T01:08:22.640Z,8.36
2023-03-26T01:10:53.274Z,8.37
2023-03-26T01:13:23.048Z,8.34
2023-03-26T01:15:51.047Z,8.32
2023-03-26T01:18:20.752Z,8.33
2023-03-26T01:20:50.813Z,8.33
2023-03-26T01:23:26.434Z,8.32
2023-03-26T01:26:04.285Z,8.35
2023-03-26T01:28:34.994Z,8.35
2023-03-26T01:31:17.287Z,8.33
2023-03-26T01:33:54.566Z,8.31
2023-03-26T01:36:37.621Z,8.26
2023-03-26T01:39:25.238Z,8.26
2023-03-26T01:41:57.149Z,8.26
2023-03-26T01:44:32.077Z,8.30
2023-03-26T01:47:00.645Z,8.27
2023-03-26T01:49:29.005Z,8.29
2023-03-26T01:51:56.670Z,8.29
2023-03-26T01:54:26.746Z,8.29
2023-03-26T01:57:05.548Z,8.29
2023-03-26T01:59:56.886Z,8.28
2023-03-26T02:02:44.911Z,8.29
2023-03-26T02:05:29.290Z,8.27
2023-03-26T02:08:22.662Z,8.28
2023-03-26T02:10:54.766Z,8.28
2023-03-26T02:13:21.928Z,8.27
2023-03-26T02:16:02.854Z,8.24
2023-03-26T02:18:41.673Z,8.24
2023-03-26T02:21:20.461Z,8.20
2023-03-26T02:23:57.788Z,8.21
2023-03-26T02:26:24.613Z,8.22
2023-03-26T02:28:51.044Z,8.24
2023-03-26T02:31:19.232Z,8.21
2023-03-26T02:33:47.595Z,8.20
2023-03-26T02:36:14.255Z,8.17
2023-03-26T02:38:41.594Z,8.17
2023-03-26T02:41:08.006Z,8.19
2023-03-26T02:43:34.357Z,8.20
2023-03-26T02:46:00.898Z,8.24
2023-03-26T02:48:27.359Z,8.26
2023-03-26T02:50:56.708Z,8.23
2023-03-26T02:53:23.743Z,8.24
2023-03-26T02:55:50.248Z,8.23
2023-03-26T02:58:17.420Z,8.24
2023-03-26T03:00:44.923Z,8.25
2023-03-26T03:03:11.323Z,8.25
2023-03-26T03:05:38.080Z,8.23
2023-03-26T03:08:05.899Z,8.26
2023-03-26T03:10:35.146Z,8.26
2023-03-26T03:13:01.567Z,8.25
2023-03-26T03:15:31.072Z,8.24
2023-03-26T03:17:57.481Z,8.25
2023-03-26T03:20:23.949Z,8.26
2023-03-26T03:22:50.363Z,8.28
2023-03-26T03:25:17.457Z,8.29
2023-03-26T03:27:44.555Z,8.30
2023-03-26T03:30:13.057Z,8.30
2023-03-26T03:32:39.588Z,8.30
2023-03-26T03:35:07.316Z,8.30
2023-03-26T03:37:33.929Z,8.29
2023-03-26T03:40:00.312Z,8.30
2023-03-26T03:42:27.512Z,8.29
2023-03-26T03:44:53.941Z,8.31
2023-03-26T03:47:21.029Z,8.33
2023-03-26T03:49:47.356Z,8.33
2023-03-26T03:52:13.728Z,8.34
2023-03-26T03:54:40.269Z,8.35
2023-03-26T03:57:06.582Z,8.36
2023-03-26T03:59:33.026Z,8.35
2023-03-26T04:01:59.391Z,8.36
2023-03-26T04:04:25.903Z,8.36
2023-03-26T04:06:52.604Z,8.37
2023-03-26T04:09:19.096Z,8.39
2023-03-26T04:11:45.584Z,8.41
2023-03-26T04:14:11.929Z,8.41
2023-03-26T04:16:38.330Z,8.41
2023-03-26T04:19:04.838Z,8.41
2023-03-26T04:21:31.308Z,8.42
2023-03-26T04:23:57.730Z,8.42
2023-03-26T04:26:24.307Z,8.41
2023-03-26T04:28:56.368Z,8.42
2023-03-26T04:31:28.911Z,8.42
2023-03-26T04:34:01.414Z,8.43
2023-03-26T04:36:30.106Z,8.43
2023-03-26T04:38:58.425Z,8.44
2023-03-26T04:41:27.799Z,8.44
2023-03-26T04:43:54.514Z,8.45
2023-03-26T04:46:21.842Z,8.44
2023-03-26T04:48:52.517Z,8.44
2023-03-26T04:51:23.746Z,8.44
2023-03-26T04:53:57.748Z,8.44
2023-03-26T04:56:38.094Z,8.44
2023-03-26T04:59:04.584Z,8.44
2023-03-26T05:01:31.011Z,8.43
2023-03-26T05:03:58.552Z,8.43
2023-03-26T05:06:28.821Z,8.44
2023-03-26T05:08:55.432Z,8.44
2023-03-26T05:11:21.803Z,8.43
2023-03-26T05:13:48.202Z,8.43
2023-03-26T05:16:14.730Z,8.44
2023-03-26T05:18:41.229Z,8.44
2023-03-26T05:21:07.838Z,8.44
2023-03-26T05:23:34.310Z,8.45
2023-03-26T05:26:00.751Z,8.44
2023-03-26T05:28:28.138Z,8.45
2023-03-26T05:30:54.868Z,8.46
2023-03-26T05:33:21.993Z,8.47
2023-03-26T05:35:59.841Z,8.47
2023-03-26T05:38:28.839Z,8.47
2023-03-26T05:41:01.950Z,8.46
2023-03-26T05:43:29.168Z,8.47
2023-03-26T05:45:55.610Z,8.47
2023-03-26T05:48:22.334Z,8.46
2023-03-26T05:50:54.146Z,8.46
2023-03-26T05:53:21.803Z,8.46
2023-03-26T05:55:58.448Z,8.46
2023-03-26T05:58:26.072Z,8.46
2023-03-26T06:01:16.505Z,8.46
2023-03-26T06:03:44.796Z,8.46
2023-03-26T06:06:20.451Z,8.43
2023-03-26T06:09:01.766Z,8.49
2023-03-26T06:11:32.861Z,8.48
2023-03-26T06:14:00.347Z,8.43
2023-03-26T06:16:28.076Z,8.43
2023-03-26T06:18:56.326Z,8.43
2023-03-26T06:21:24.437Z,8.43
2023-03-26T06:23:51.810Z,8.43
2023-03-26T06:26:18.476Z,8.43
2023-03-26T06:28:44.955Z,8.38
2023-03-26T06:31:11.960Z,8.38
2023-03-26T06:33:38.526Z,8.40
2023-03-26T06:36:05.524Z,8.41
2023-03-26T06:38:32.016Z,8.39
2023-03-26T06:41:03.284Z,8.36
2023-03-26T06:43:33.468Z,8.37
2023-03-26T06:46:01.242Z,8.35
2023-03-26T06:48:27.808Z,8.33
2023-03-26T06:50:54.671Z,8.33
2023-03-26T06:53:21.285Z,8.36
2023-03-26T06:55:47.672Z,8.38
2023-03-26T06:58:14.380Z,8.41
2023-03-26T07:00:42.213Z,8.33
2023-03-26T07:03:08.762Z,8.32
2023-03-26T07:05:35.288Z,8.30
2023-03-26T07:08:02.872Z,8.34
2023-03-26T07:10:29.387Z,8.38
2023-03-26T07:12:56.069Z,8.38
2023-03-26T07:15:22.567Z,8.35
2023-03-26T07:17:49.093Z,8.36
2023-03-26T07:20:15.824Z,8.36
2023-03-26T07:22:42.675Z,8.32
2023-03-26T07:25:09.997Z,8.30
2023-03-26T07:28:02.244Z,8.30
2023-03-26T07:30:31.668Z,8.32
2023-03-26T07:33:07.310Z,8.34
2023-03-26T07:35:46.249Z,8.35
2023-03-26T07:38:47.041Z,8.36
2023-03-26T07:41:42.716Z,8.36
2023-03-26T07:44:19.347Z,8.37
2023-03-26T07:46:47.791Z,8.38
2023-03-26T07:49:14.887Z,8.38
2023-03-26T07:51:41.544Z,8.40
2023-03-26T07:54:10.645Z,8.42
2023-03-26T07:56:42.007Z,8.41
2023-03-26T07:59:36.362Z,8.39
2023-03-26T08:02:02.649Z,8.37
2023-03-26T08:05:02.836Z,8.36
2023-03-26T08:08:02.755Z,8.36
2023-03-26T08:10:39.051Z,8.33
2023-03-26T08:13:34.310Z,8.35
2023-03-26T08:16:26.307Z,8.36
2023-03-26T08:19:30.741Z,8.34
2023-03-26T08:22:40.922Z,8.36
2023-03-26T08:25:33.331Z,8.38
2023-03-26T08:28:26.356Z,8.38
2023-03-26T08:30:55.114Z,8.41
2023-03-26T08:33:25.830Z,8.43
2023-03-26T08:35:52.257Z,8.46
2023-03-26T08:38:20.806Z,8.46
2023-03-26T08:41:08.640Z,8.48
2023-03-26T08:43:57.263Z,8.50
2023-03-26T08:46:51.756Z,8.48
2023-03-26T08:49:33.279Z,8.44
2023-03-26T08:52:35.396Z,8.33
2023-03-26T08:55:30.194Z,8.31
2023-03-26T08:58:27.821Z,8.26
2023-03-26T09:01:06.418Z,8.21
2023-03-26T09:03:54.001Z,8.20
2023-03-26T09:07:06.923Z,8.19
2023-03-26T09:10:03.149Z,8.17
2023-03-26T09:13:07.361Z,8.15
2023-03-26T09:15:55.793Z,8.19
2023-03-26T09:18:44.077Z,8.18
2023-03-26T09:21:32.032Z,8.16
2023-03-26T09:24:22.604Z,8.18
2023-03-26T09:27:19.724Z,8.17
2023-03-26T09:30:12.406Z,8.16
2023-03-26T09:33:05.234Z,8.18
2023-03-26T09:35:52.854Z,8.15
2023-03-26T09:38:25.402Z,8.18
2023-03-26T09:40:54.690Z,8.17
2023-03-26T09:43:40.921Z,8.18
2023-03-26T09:46:37.148Z,8.18
2023-03-26T09:49:28.145Z,8.17
2023-03-26T09:52:07.087Z,8.09
2023-03-26T09:55:11.305Z,8.09
2023-03-26T09:58:01.100Z,8.05
2023-03-26T10:00:33.169Z,8.04
2023-03-26T10:03:18.165Z,8.01
2023-03-26T10:05:59.666Z,8.01
2023-03-26T10:08:39.685Z,8.02
2023-03-26T10:11:21.341Z,8.02
2023-03-26T10:14:12.623Z,7.98
2023-03-26T10:16:46.414Z,7.97
2023-03-26T10:19:28.701Z,8.00
2023-03-26T10:22:13.542Z,8.03
2023-03-26T10:25:10.879Z,8.07
2023-03-26T10:27:49.349Z,8.10
2023-03-26T10:30:38.453Z,8.07
2023-03-26T10:33:32.309Z,8.02
2023-03-26T10:36:27.562Z,8.06
2023-03-26T10:39:36.420Z,8.07
2023-03-26T10:42:21.070Z,8.07
2023-03-26T10:45:18.878Z,8.05
2023-03-26T10:48:13.436Z,8.04
2023-03-26T10:51:02.469Z,8.03
2023-03-26T10:53:54.673Z,8.06
2023-03-26T10:56:44.131Z,8.00
2023-03-26T10:59:15.699Z,7.97
2023-03-26T11:02:00.853Z,7.98
2023-03-26T11:04:55.633Z,7.98
2023-03-26T11:07:44.108Z,7.92
2023-03-26T11:10:10.411Z,7.93
2023-03-26T11:13:06.832Z,7.96
2023-03-26T11:15:46.014Z,7.94
2023-03-26T11:18:39.354Z,7.96
2023-03-26T11:21:19.125Z,7.92
2023-03-26T11:23:49.702Z,7.92
2023-03-26T11:27:15.285Z,7.92
2023-03-26T11:30:03.101Z,7.96
2023-03-26T11:33:00.109Z,7.98
2023-03-26T11:35:43.893Z,7.98
2023-03-26T11:38:21.630Z,7.98
2023-03-26T11:40:53.082Z,8.00
2023-03-26T11:43:26.514Z,7.93
2023-03-26T11:45:53.742Z,7.87
2023-03-26T11:48:46.552Z,7.88
2023-03-26T11:51:20.226Z,7.91
2023-03-26T11:53:47.711Z,7.93
2023-03-26T11:56:25.909Z,7.88
2023-03-26T11:59:08.551Z,7.86
2023-03-26T12:01:50.457Z,7.88
2023-03-26T12:04:37.801Z,7.92
2023-03-26T12:07:21.042Z,7.92
2023-03-26T12:09:56.489Z,7.92
2023-03-26T12:12:42.180Z,7.92
2023-03-26T12:15:21.257Z,7.95
2023-03-26T12:17:53.312Z,7.97
2023-03-26T12:20:25.584Z,7.99
2023-03-26T12:22:59.256Z,7.98
2023-03-26T12:25:27.957Z,7.99
2023-03-26T12:28:15.557Z,8.02
2023-03-26T12:30:54.199Z,8.08
2023-03-26T12:33:29.589Z,8.10
2023-03-26T12:36:00.551Z,8.11
2023-03-26T12:38:33.566Z,8.14
2023-03-26T12:43:51.460Z,8.16
2023-03-26T12:44:55.919Z,8.16
2023-03-26T12:47:57.213Z,8.20
2023-03-26T12:50:05.321Z,8.20
2023-03-26T12:52:49.576Z,8.22
2023-03-26T12:55:40.451Z,8.23
2023-03-26T12:58:27.170Z,8.24
2023-03-26T13:00:56.421Z,8.26
2023-03-26T13:03:37.738Z,8.28
2023-03-26T13:06:20.304Z,8.28
2023-03-26T13:08:52.728Z,8.28
2023-03-26T13:11:43.446Z,8.31
2023-03-26T13:14:48.303Z,8.34
2023-03-26T13:17:34.909Z,8.35
2023-03-26T13:20:25.075Z,8.36
2023-03-26T13:23:19.450Z,8.36
2023-03-26T13:26:09.180Z,8.34
2023-03-26T13:29:09.384Z,8.34
2023-03-26T13:32:08.709Z,8.33
2023-03-26T13:35:10.272Z,8.35
2023-03-26T13:37:59.611Z,8.35
2023-03-26T13:40:41.691Z,8.40
2023-03-26T13:43:28.227Z,8.38
2023-03-26T13:46:07.158Z,8.40
2023-03-26T13:48:44.394Z,8.43
2023-03-26T13:51:21.884Z,8.44
2023-03-26T13:53:55.627Z,8.45
2023-03-26T13:56:30.765Z,8.45
2023-03-26T13:59:12.110Z,8.48
2023-03-26T14:01:51.337Z,8.48
2023-03-26T14:04:52.443Z,8.48
2023-03-26T14:07:26.122Z,8.50
2023-03-26T14:10:01.600Z,8.51
2023-03-26T14:12:49.459Z,8.53
2023-03-26T14:15:44.092Z,8.52
2023-03-26T14:18:24.575Z,8.48
2023-03-26T14:20:56.252Z,8.46
2023-03-26T14:24:04.462Z,8.44
2023-03-26T14:27:07.918Z,8.46
2023-03-26T14:29:56.914Z,8.49
2023-03-26T14:32:52.051Z,8.43
2023-03-26T14:35:31.511Z,8.45
2023-03-26T14:38:33.510Z,8.44
2023-03-26T14:41:24.640Z,8.42
2023-03-26T14:44:22.889Z,8.40
2023-03-26T14:47:15.851Z,8.33
2023-03-26T14:50:08.489Z,8.34
2023-03-26T14:52:51.554Z,8.31
2023-03-26T14:55:49.353Z,8.29
2023-03-26T14:58:24.871Z,8.26
2023-03-26T15:01:04.176Z,8.25
2023-03-26T15:03:49.034Z,8.24
2023-03-26T15:06:40.073Z,8.18
2023-03-26T15:09:27.839Z,8.15
2023-03-26T15:12:12.276Z,8.13
2023-03-26T15:15:04.222Z,8.16
2023-03-26T15:17:55.336Z,8.15
2023-03-26T15:20:56.934Z,8.16
2023-03-26T15:24:05.436Z,8.15
2023-03-26T15:27:01.578Z,8.12
2023-03-26T15:30:12.617Z,8.08
2023-03-26T15:33:11.916Z,8.07
2023-03-26T15:35:52.768Z,8.11
2023-03-26T15:38:50.204Z,8.11
2023-03-26T15:42:03.865Z,8.10
2023-03-26T15:44:53.026Z,8.04
2023-03-26T15:47:39.029Z,8.01
2023-03-26T15:50:20.648Z,8.02
2023-03-26T15:53:06.585Z,7.97
2023-03-26T15:56:13.925Z,7.91
2023-03-26T15:59:01.318Z,7.91
2023-03-26T16:01:49.440Z,7.91
2023-03-26T16:04:34.397Z,7.87
2023-03-26T16:07:11.530Z,7.86
2023-03-26T16:10:16.840Z,7.85
2023-03-26T16:13:14.588Z,7.83
2023-03-26T16:15:42.608Z,7.83
2023-03-26T16:18:15.301Z,7.82
2023-03-26T16:20:54.006Z,7.77
2023-03-26T16:23:55.342Z,7.70
2023-03-26T16:26:54.779Z,7.71
2023-03-26T16:29:23.861Z,7.64
2023-03-26T16:32:14.844Z,7.59
2023-03-26T16:34:47.543Z,7.53
2023-03-26T16:37:36.024Z,7.51
2023-03-26T16:40:20.902Z,7.46
2023-03-26T16:42:47.973Z,7.43
2023-03-26T16:45:27.622Z,7.43
2023-03-26T16:48:06.789Z,7.43
2023-03-26T16:50:52.695Z,7.45
2023-03-26T16:53:29.852Z,7.50
2023-03-26T16:56:16.763Z,7.48
2023-03-26T16:59:00.306Z,7.38
2023-03-26T17:01:48.107Z,7.35
2023-03-26T17:04:23.305Z,7.35
2023-03-26T17:06:49.631Z,7.33
2023-03-26T17:09:31.581Z,7.31
2023-03-26T17:12:05.954Z,7.32
2023-03-26T17:14:38.156Z,7.28
2023-03-26T17:17:26.588Z,7.27
2023-03-26T17:20:13.279Z,7.30
2023-03-26T17:22:47.097Z,7.22
2023-03-26T17:25:33.449Z,7.17
2023-03-26T17:28:24.586Z,7.15
2023-03-26T17:31:23.939Z,7.13
2023-03-26T17:33:50.672Z,7.11
2023-03-26T17:36:24.005Z,7.06
2023-03-26T17:38:50.397Z,7.08
2023-03-26T17:41:54.397Z,7.10
2023-03-26T17:44:44.809Z,7.10
2023-03-26T17:47:26.949Z,7.04
2023-03-26T17:50:19.549Z,6.98
2023-03-26T17:53:00.181Z,6.96
2023-03-26T17:55:36.751Z,6.95
2023-03-26T17:58:20.350Z,6.96
2023-03-26T18:00:52.074Z,6.96
2023-03-26T18:03:30.837Z,6.99
2023-03-26T18:06:08.195Z,6.97
2023-03-26T18:08:42.475Z,6.96
2023-03-26T18:11:36.921Z,6.90
2023-03-26T18:14:45.752Z,6.88
2023-03-26T18:17:12.290Z,6.86
2023-03-26T18:19:55.210Z,6.79
2023-03-26T18:22:28.466Z,6.78
2023-03-26T18:25:01.275Z,6.77
2023-03-26T18:27:36.482Z,6.75
2023-03-26T18:30:14.879Z,6.71
2023-03-26T18:32:52.243Z,6.69
2023-03-26T18:35:21.849Z,6.70
2023-03-26T18:37:51.378Z,6.66
2023-03-26T18:40:21.292Z,6.70
2023-03-26T18:42:57.546Z,6.71
2023-03-26T18:45:36.028Z,6.69
2023-03-26T18:48:06.475Z,6.68
2023-03-26T18:50:36.818Z,6.70
2023-03-26T18:53:06.267Z,6.72
2023-03-26T18:55:39.152Z,6.68
2023-03-26T18:58:23.755Z,6.63
2023-03-26T19:00:52.865Z,6.57
2023-03-26T19:03:22.160Z,6.51
2023-03-26T19:05:49.201Z,6.46
2023-03-26T19:08:17.014Z,6.46
2023-03-26T19:10:45.145Z,6.48
2023-03-26T19:13:15.338Z,6.47
2023-03-26T19:15:46.419Z,6.50
2023-03-26T19:18:18.952Z,6.50
2023-03-26T19:20:48.233Z,6.48
2023-03-26T19:23:21.614Z,6.39
2023-03-26T19:25:54.847Z,6.41
2023-03-26T19:28:33.643Z,6.44
2023-03-26T19:31:36.948Z,6.46
2023-03-26T19:34:09.402Z,6.43
2023-03-26T19:36:57.913Z,6.37
2023-03-26T19:39:37.121Z,6.34
2023-03-26T19:42:06.401Z,6.35
2023-03-26T19:44:33.555Z,6.33
2023-03-26T19:47:07.537Z,6.32
2023-03-26T19:49:48.692Z,6.26
2023-03-26T19:52:21.220Z,6.29
2023-03-26T19:55:06.698Z,6.30
2023-03-26T19:57:36.269Z,6.17
2023-03-26T20:00:05.250Z,6.19
2023-03-26T20:02:31.751Z,6.18
2023-03-26T20:04:58.193Z,6.14
2023-03-26T20:10:15.757Z,6.17
2023-03-26T20:12:42.412Z,6.21
2023-03-26T20:15:19.247Z,6.12
2023-03-26T20:17:47.000Z,6.08
2023-03-26T20:20:13.646Z,6.13
2023-03-26T20:22:40.148Z,6.10
2023-03-26T20:25:21.508Z,6.09
2023-03-26T20:27:48.089Z,6.11
2023-03-26T20:32:44.476Z,6.09
2023-03-26T20:35:17.897Z,6.01
2023-03-26T20:37:44.692Z,6.00
2023-03-26T20:40:12.347Z,5.99
2023-03-26T20:42:39.166Z,5.99
2023-03-26T20:45:18.490Z,6.01
2023-03-26T20:47:45.906Z,6.03
2023-03-26T20:50:14.106Z,6.06
2023-03-26T20:52:41.466Z,6.07
2023-03-26T20:55:15.607Z,6.00
2023-03-26T20:57:46.384Z,5.94
2023-03-26T21:00:22.901Z,5.95
2023-03-26T21:02:53.798Z,5.97
2023-03-26T21:05:25.765Z,5.99
2023-03-26T21:07:57.751Z,5.98
2023-03-26T21:10:26.006Z,6.00
2023-03-26T21:13:00.225Z,5.98
2023-03-26T21:15:31.288Z,6.03
2023-03-26T21:17:58.080Z,5.97
2023-03-26T21:20:27.862Z,5.98
2023-03-26T21:23:27.089Z,6.00
2023-03-26T21:26:12.170Z,5.89
2023-03-26T21:28:47.626Z,5.93
2023-03-26T21:31:21.072Z,5.92
2023-03-26T21:33:49.298Z,5.84
2023-03-26T21:36:18.232Z,5.87
2023-03-26T21:38:45.544Z,5.85
2023-03-26T21:41:24.296Z,5.88
2023-03-26T21:43:51.363Z,5.74
2023-03-26T21:46:18.330Z,5.63
2023-03-26T21:48:44.949Z,5.66
2023-03-26T21:51:14.641Z,5.71
2023-03-26T21:53:42.442Z,5.69
2023-03-26T21:56:19.300Z,5.68
2023-03-26T21:59:07.585Z,5.66
2023-03-26T22:01:41.361Z,5.71
2023-03-26T22:04:26.793Z,5.62
2023-03-26T22:07:14.238Z,5.65
2023-03-26T22:09:41.268Z,5.73
2023-03-26T22:12:07.745Z,5.67
2023-03-26T22:14:34.408Z,5.66
2023-03-26T22:17:00.811Z,5.62
2023-03-26T22:19:29.104Z,5.68
2023-03-26T22:21:58.189Z,5.62
2023-03-26T22:24:24.664Z,5.64
2023-03-26T22:26:51.036Z,5.67
2023-03-26T22:29:17.487Z,5.71
2023-03-26T22:31:43.963Z,5.69
2023-03-26T22:34:11.683Z,5.62
2023-03-26T22:36:40.297Z,5.64
2023-03-26T22:39:07.152Z,5.60
2023-03-26T22:41:33.555Z,5.51
2023-03-26T22:44:09.313Z,5.53
2023-03-26T22:46:40.145Z,5.50
2023-03-26T22:49:06.602Z,5.56
2023-03-26T22:51:32.917Z,5.59
2023-03-26T22:53:59.275Z,5.59
2023-03-26T22:56:25.676Z,5.55
2023-03-26T22:58:52.042Z,5.58
2023-03-26T23:01:22.738Z,5.63
2023-03-26T23:03:49.574Z,5.67
2023-03-26T23:06:17.140Z,5.69
2023-03-26T23:08:43.741Z,5.67
2023-03-26T23:11:16.142Z,5.61
2023-03-26T23:13:43.904Z,5.61
2023-03-26T23:16:11.818Z,5.59
2023-03-26T23:18:39.150Z,5.62
2023-03-26T23:21:11.737Z,5.62
2023-03-26T23:23:39.538Z,5.66
2023-03-26T23:26:06.843Z,5.64
2023-03-26T23:28:34.369Z,5.65
2023-03-26T23:31:03.295Z,5.66
2023-03-26T23:33:34.135Z,5.64
2023-03-26T23:36:04.204Z,5.69
2023-03-26T23:38:44.061Z,5.69
2023-03-26T23:41:14.958Z,5.71
2023-03-26T23:43:54.807Z,5.69
2023-03-26T23:46:30.625Z,5.70
2023-03-26T23:48:59.847Z,5.72
2023-03-26T23:51:26.608Z,5.68
2023-03-26T23:53:53.635Z,5.65
2023-03-26T23:56:20.105Z,5.66
2023-03-26T23:58:47.636Z,5.67
